sensor_id;sensor_type;location;lat;lon;timestamp;pressure;altitude;pressure_sealevel;temperature;humidity
28289;BME280;15558;50.874;6.964;2022-09-09T00:04:16;100462.50;;;22.30;59.45
28289;BME280;15558;50.874;6.964;2022-09-09T00:09:27;100465.97;;;22.17;59.58
28289;BME280;15558;50.874;6.964;2022-09-09T00:12:15;100465.41;;;22.12;60.06
28289;BME280;15558;50.874;6.964;2022-09-09T00:14:48;100467.56;;;22.15;59.91
28289;BME280;15558;50.874;6.964;2022-09-09T00:20:32;100447.19;;;22.16;59.15
28289;BME280;15558;50.874;6.964;2022-09-09T00:23:12;100446.53;;;22.04;58.96
28289;BME280;15558;50.874;6.964;2022-09-09T00:28:24;100455.09;;;22.04;59.81
28289;BME280;15558;50.874;6.964;2022-09-09T00:30:51;100459.59;;;22.05;59.66
28289;BME280;15558;50.874;6.964;2022-09-09T00:33:20;100459.34;;;21.91;60.04
28289;BME280;15558;50.874;6.964;2022-09-09T00:35:50;100460.66;;;21.97;59.70
28289;BME280;15558;50.874;6.964;2022-09-09T00:38:51;100463.41;;;21.90;59.93
28289;BME280;15558;50.874;6.964;2022-09-09T00:44:33;100458.59;;;21.94;59.53
28289;BME280;15558;50.874;6.964;2022-09-09T00:54:51;100456.81;;;21.86;60.26
28289;BME280;15558;50.874;6.964;2022-09-09T00:57:45;100462.88;;;21.84;60.11
28289;BME280;15558;50.874;6.964;2022-09-09T01:03:10;100467.03;;;21.87;60.05
28289;BME280;15558;50.874;6.964;2022-09-09T01:08:37;100462.25;;;21.72;60.55
28289;BME280;15558;50.874;6.964;2022-09-09T01:11:10;100456.25;;;21.77;60.67
28289;BME280;15558;50.874;6.964;2022-09-09T01:13:41;100462.88;;;21.84;60.52
28289;BME280;15558;50.874;6.964;2022-09-09T01:16:10;100457.69;;;21.90;60.43
28289;BME280;15558;50.874;6.964;2022-09-09T01:18:40;100457.63;;;21.86;60.10
28289;BME280;15558;50.874;6.964;2022-09-09T01:24:14;100454.56;;;21.76;60.18
28289;BME280;15558;50.874;6.964;2022-09-09T01:26:43;100444.47;;;21.82;59.52
28289;BME280;15558;50.874;6.964;2022-09-09T01:29:13;100447.47;;;21.67;60.00
28289;BME280;15558;50.874;6.964;2022-09-09T01:34:17;100452.28;;;21.63;59.87
28289;BME280;15558;50.874;6.964;2022-09-09T01:37:02;100458.38;;;21.61;60.31
28289;BME280;15558;50.874;6.964;2022-09-09T01:39:31;100451.97;;;21.68;60.09
28289;BME280;15558;50.874;6.964;2022-09-09T01:41:58;100458.81;;;21.63;60.17
28289;BME280;15558;50.874;6.964;2022-09-09T01:44:25;100450.00;;;21.72;59.71
28289;BME280;15558;50.874;6.964;2022-09-09T01:46:52;100454.00;;;21.67;59.86
28289;BME280;15558;50.874;6.964;2022-09-09T01:49:18;100460.34;;;21.57;60.20
28289;BME280;15558;50.874;6.964;2022-09-09T01:51:46;100456.97;;;21.52;60.16
28289;BME280;15558;50.874;6.964;2022-09-09T01:54:14;100464.53;;;21.63;60.07
28289;BME280;15558;50.874;6.964;2022-09-09T01:56:51;100458.69;;;21.56;60.54
28289;BME280;15558;50.874;6.964;2022-09-09T02:04:52;100458.28;;;21.58;61.05
28289;BME280;15558;50.874;6.964;2022-09-09T02:10:25;100444.09;;;21.61;60.40
28289;BME280;15558;50.874;6.964;2022-09-09T02:13:15;100454.16;;;21.55;60.20
28289;BME280;15558;50.874;6.964;2022-09-09T02:16:12;100460.91;;;21.44;60.78
28289;BME280;15558;50.874;6.964;2022-09-09T02:18:50;100463.19;;;21.57;60.15
28289;BME280;15558;50.874;6.964;2022-09-09T02:21:18;100455.41;;;21.54;60.29
28289;BME280;15558;50.874;6.964;2022-09-09T02:23:46;100454.94;;;21.52;60.49
28289;BME280;15558;50.874;6.964;2022-09-09T02:26:16;100459.06;;;21.55;60.76
28289;BME280;15558;50.874;6.964;2022-09-09T02:28:47;100451.47;;;21.62;60.60
28289;BME280;15558;50.874;6.964;2022-09-09T02:31:17;100453.44;;;21.58;60.98
28289;BME280;15558;50.874;6.964;2022-09-09T02:33:47;100455.88;;;21.60;60.83
28289;BME280;15558;50.874;6.964;2022-09-09T02:36:17;100456.22;;;21.55;60.82
28289;BME280;15558;50.874;6.964;2022-09-09T02:38:46;100450.13;;;21.56;60.96
28289;BME280;15558;50.874;6.964;2022-09-09T02:41:19;100459.69;;;21.45;61.46
28289;BME280;15558;50.874;6.964;2022-09-09T02:43:47;100446.75;;;21.51;60.85
28289;BME280;15558;50.874;6.964;2022-09-09T02:49:32;100455.56;;;21.43;61.41
28289;BME280;15558;50.874;6.964;2022-09-09T02:52:07;100440.72;;;21.37;61.58
28289;BME280;15558;50.874;6.964;2022-09-09T02:54:35;100432.16;;;21.37;61.76
28289;BME280;15558;50.874;6.964;2022-09-09T02:57:12;100438.88;;;21.45;61.52
28289;BME280;15558;50.874;6.964;2022-09-09T02:59:39;100439.69;;;21.45;61.92
28289;BME280;15558;50.874;6.964;2022-09-09T03:02:05;100429.41;;;21.41;62.37
28289;BME280;15558;50.874;6.964;2022-09-09T03:04:31;100434.41;;;21.47;62.12
28289;BME280;15558;50.874;6.964;2022-09-09T03:06:58;100432.34;;;21.44;62.41
28289;BME280;15558;50.874;6.964;2022-09-09T03:09:24;100435.25;;;21.47;61.99
28289;BME280;15558;50.874;6.964;2022-09-09T03:11:51;100427.44;;;21.45;62.24
28289;BME280;15558;50.874;6.964;2022-09-09T03:14:17;100431.28;;;21.52;62.27
28289;BME280;15558;50.874;6.964;2022-09-09T03:16:47;100423.06;;;21.50;61.93
28289;BME280;15558;50.874;6.964;2022-09-09T03:19:13;100424.72;;;21.51;61.93
28289;BME280;15558;50.874;6.964;2022-09-09T03:21:39;100427.56;;;21.51;61.97
28289;BME280;15558;50.874;6.964;2022-09-09T03:24:05;100427.81;;;21.43;61.99
28289;BME280;15558;50.874;6.964;2022-09-09T03:26:32;100434.50;;;21.50;62.01
28289;BME280;15558;50.874;6.964;2022-09-09T03:28:58;100430.88;;;21.53;61.99
28289;BME280;15558;50.874;6.964;2022-09-09T03:31:26;100434.13;;;21.52;61.47
28289;BME280;15558;50.874;6.964;2022-09-09T03:33:57;100431.56;;;21.47;61.61
28289;BME280;15558;50.874;6.964;2022-09-09T03:36:27;100430.81;;;21.50;61.50
28289;BME280;15558;50.874;6.964;2022-09-09T03:38:54;100433.84;;;21.38;61.78
28289;BME280;15558;50.874;6.964;2022-09-09T03:41:22;100427.44;;;21.45;61.79
28289;BME280;15558;50.874;6.964;2022-09-09T03:43:53;100434.94;;;21.34;62.00
28289;BME280;15558;50.874;6.964;2022-09-09T03:46:20;100433.72;;;21.35;61.93
28289;BME280;15558;50.874;6.964;2022-09-09T03:48:46;100436.34;;;21.40;61.83
28289;BME280;15558;50.874;6.964;2022-09-09T03:51:12;100439.84;;;21.33;62.23
28289;BME280;15558;50.874;6.964;2022-09-09T03:53:38;100437.81;;;21.34;62.13
28289;BME280;15558;50.874;6.964;2022-09-09T03:56:06;100442.75;;;21.37;62.11
28289;BME280;15558;50.874;6.964;2022-09-09T03:58:36;100435.56;;;21.43;61.43
28289;BME280;15558;50.874;6.964;2022-09-09T04:01:11;100427.44;;;21.45;61.42
28289;BME280;15558;50.874;6.964;2022-09-09T04:03:43;100434.66;;;21.39;61.56
28289;BME280;15558;50.874;6.964;2022-09-09T04:06:11;100430.75;;;21.47;61.11
28289;BME280;15558;50.874;6.964;2022-09-09T04:08:39;100425.56;;;21.33;61.69
28289;BME280;15558;50.874;6.964;2022-09-09T04:11:05;100426.09;;;21.39;61.74
28289;BME280;15558;50.874;6.964;2022-09-09T04:13:33;100422.94;;;21.44;61.41
28289;BME280;15558;50.874;6.964;2022-09-09T04:16:00;100423.53;;;21.52;61.15
28289;BME280;15558;50.874;6.964;2022-09-09T04:18:27;100419.00;;;21.51;61.46
28289;BME280;15558;50.874;6.964;2022-09-09T04:20:56;100423.16;;;21.54;60.96
28289;BME280;15558;50.874;6.964;2022-09-09T04:23:24;100417.97;;;21.41;61.57
28289;BME280;15558;50.874;6.964;2022-09-09T04:25:52;100428.66;;;21.44;61.63
28289;BME280;15558;50.874;6.964;2022-09-09T04:28:20;100417.59;;;21.42;61.71
28289;BME280;15558;50.874;6.964;2022-09-09T04:30:47;100428.72;;;21.47;61.81
28289;BME280;15558;50.874;6.964;2022-09-09T04:33:14;100437.34;;;21.32;61.79
28289;BME280;15558;50.874;6.964;2022-09-09T04:35:48;100443.38;;;21.46;61.60
28289;BME280;15558;50.874;6.964;2022-09-09T04:38:15;100434.81;;;21.46;61.24
28289;BME280;15558;50.874;6.964;2022-09-09T04:40:43;100435.56;;;21.43;61.48
28289;BME280;15558;50.874;6.964;2022-09-09T04:43:09;100443.22;;;21.39;61.78
28289;BME280;15558;50.874;6.964;2022-09-09T04:45:36;100439.44;;;21.35;61.82
28289;BME280;15558;50.874;6.964;2022-09-09T04:48:03;100447.13;;;21.31;62.08
28289;BME280;15558;50.874;6.964;2022-09-09T04:50:29;100433.53;;;21.24;62.36
28289;BME280;15558;50.874;6.964;2022-09-09T04:52:55;100442.50;;;21.23;62.23
28289;BME280;15558;50.874;6.964;2022-09-09T04:55:21;100434.78;;;21.27;62.47
28289;BME280;15558;50.874;6.964;2022-09-09T04:57:48;100447.13;;;21.31;62.55
28289;BME280;15558;50.874;6.964;2022-09-09T05:00:14;100454.16;;;21.37;62.17
28289;BME280;15558;50.874;6.964;2022-09-09T05:02:40;100449.28;;;21.37;62.09
28289;BME280;15558;50.874;6.964;2022-09-09T05:05:08;100451.19;;;21.30;62.20
28289;BME280;15558;50.874;6.964;2022-09-09T05:07:34;100438.53;;;21.31;62.15
28289;BME280;15558;50.874;6.964;2022-09-09T05:10:00;100443.56;;;21.37;61.76
28289;BME280;15558;50.874;6.964;2022-09-09T05:12:26;100442.84;;;21.21;62.26
28289;BME280;15558;50.874;6.964;2022-09-09T05:14:52;100445.16;;;21.35;62.15
28289;BME280;15558;50.874;6.964;2022-09-09T05:17:18;100448.13;;;21.38;61.61
28289;BME280;15558;50.874;6.964;2022-09-09T05:19:44;100445.03;;;21.28;61.92
28289;BME280;15558;50.874;6.964;2022-09-09T05:22:10;100449.50;;;21.29;62.03
28289;BME280;15558;50.874;6.964;2022-09-09T05:24:37;100441.81;;;21.29;61.64
28289;BME280;15558;50.874;6.964;2022-09-09T05:27:04;100449.06;;;21.27;62.05
28289;BME280;15558;50.874;6.964;2022-09-09T05:29:32;100454.72;;;21.23;62.23
28289;BME280;15558;50.874;6.964;2022-09-09T05:32:01;100451.41;;;21.21;62.44
28289;BME280;15558;50.874;6.964;2022-09-09T05:34:27;100459.00;;;21.14;62.21
28289;BME280;15558;50.874;6.964;2022-09-09T05:36:52;100453.75;;;20.97;62.46
28289;BME280;15558;50.874;6.964;2022-09-09T05:39:19;100452.56;;;21.17;61.91
28289;BME280;15558;50.874;6.964;2022-09-09T05:41:45;100452.38;;;21.10;62.45
28289;BME280;15558;50.874;6.964;2022-09-09T05:44:11;100450.75;;;21.09;62.48
28289;BME280;15558;50.874;6.964;2022-09-09T05:46:37;100445.13;;;21.12;61.89
28289;BME280;15558;50.874;6.964;2022-09-09T05:49:03;100453.75;;;21.16;62.26
28289;BME280;15558;50.874;6.964;2022-09-09T05:51:31;100450.28;;;21.07;62.28
28289;BME280;15558;50.874;6.964;2022-09-09T05:53:57;100451.34;;;21.18;61.67
28289;BME280;15558;50.874;6.964;2022-09-09T05:56:28;100455.69;;;21.12;62.30
28289;BME280;15558;50.874;6.964;2022-09-09T05:58:55;100463.56;;;21.18;62.46
28289;BME280;15558;50.874;6.964;2022-09-09T06:01:22;100461.13;;;21.17;62.36
28289;BME280;15558;50.874;6.964;2022-09-09T06:03:49;100459.31;;;21.28;62.31
28289;BME280;15558;50.874;6.964;2022-09-09T06:06:18;100455.63;;;21.27;62.14
28289;BME280;15558;50.874;6.964;2022-09-09T06:08:46;100465.75;;;21.25;62.06
28289;BME280;15558;50.874;6.964;2022-09-09T06:11:13;100466.97;;;21.24;61.78
28289;BME280;15558;50.874;6.964;2022-09-09T06:13:40;100468.91;;;21.20;61.82
28289;BME280;15558;50.874;6.964;2022-09-09T06:16:11;100460.28;;;21.16;62.06
28289;BME280;15558;50.874;6.964;2022-09-09T06:18:38;100460.34;;;21.20;62.13
28289;BME280;15558;50.874;6.964;2022-09-09T06:21:06;100463.78;;;21.29;61.73
28289;BME280;15558;50.874;6.964;2022-09-09T06:23:33;100464.09;;;21.24;61.98
28289;BME280;15558;50.874;6.964;2022-09-09T06:26:24;100462.84;;;21.21;61.75
28289;BME280;15558;50.874;6.964;2022-09-09T06:28:53;100467.88;;;21.28;61.85
28289;BME280;15558;50.874;6.964;2022-09-09T06:31:21;100460.34;;;21.20;61.99
28289;BME280;15558;50.874;6.964;2022-09-09T06:33:49;100456.59;;;21.16;61.99
28289;BME280;15558;50.874;6.964;2022-09-09T06:36:17;100472.91;;;21.15;62.15
28289;BME280;15558;50.874;6.964;2022-09-09T06:38:44;100462.03;;;21.21;61.48
28289;BME280;15558;50.874;6.964;2022-09-09T06:41:12;100458.94;;;21.29;61.68
28289;BME280;15558;50.874;6.964;2022-09-09T06:43:38;100466.97;;;21.43;61.55
28289;BME280;15558;50.874;6.964;2022-09-09T06:46:10;100468.13;;;21.38;61.33
28289;BME280;15558;50.874;6.964;2022-09-09T06:48:38;100450.38;;;21.48;61.16
28289;BME280;15558;50.874;6.964;2022-09-09T06:51:20;100458.16;;;21.51;61.49
28289;BME280;15558;50.874;6.964;2022-09-09T06:53:53;100457.22;;;21.66;60.70
28289;BME280;15558;50.874;6.964;2022-09-09T06:56:31;100450.66;;;21.84;60.63
28289;BME280;15558;50.874;6.964;2022-09-09T06:58:59;100454.47;;;21.91;59.76
28289;BME280;15558;50.874;6.964;2022-09-09T07:01:32;100454.69;;;22.05;59.34
28289;BME280;15558;50.874;6.964;2022-09-09T07:03:59;100443.47;;;22.16;58.84
28289;BME280;15558;50.874;6.964;2022-09-09T07:06:30;100440.31;;;22.20;59.10
28289;BME280;15558;50.874;6.964;2022-09-09T07:09:00;100439.63;;;22.30;58.02
28289;BME280;15558;50.874;6.964;2022-09-09T07:11:28;100438.59;;;22.42;57.30
28289;BME280;15558;50.874;6.964;2022-09-09T07:13:56;100447.41;;;22.55;56.37
28289;BME280;15558;50.874;6.964;2022-09-09T07:16:23;100438.94;;;22.62;56.71
28289;BME280;15558;50.874;6.964;2022-09-09T07:18:53;100444.38;;;22.71;55.09
28289;BME280;15558;50.874;6.964;2022-09-09T07:21:25;100445.19;;;22.71;55.60
28289;BME280;15558;50.874;6.964;2022-09-09T07:23:52;100446.34;;;22.92;55.04
28289;BME280;15558;50.874;6.964;2022-09-09T07:26:21;100455.66;;;22.86;54.81
28289;BME280;15558;50.874;6.964;2022-09-09T07:28:47;100455.56;;;23.08;54.64
28289;BME280;15558;50.874;6.964;2022-09-09T07:31:24;100459.06;;;23.24;54.70
28289;BME280;15558;50.874;6.964;2022-09-09T07:33:51;100453.47;;;23.38;53.17
28289;BME280;15558;50.874;6.964;2022-09-09T07:36:21;100461.03;;;23.53;52.29
28289;BME280;15558;50.874;6.964;2022-09-09T07:38:50;100462.78;;;23.60;52.42
28289;BME280;15558;50.874;6.964;2022-09-09T07:41:20;100473.03;;;23.61;52.69
28289;BME280;15558;50.874;6.964;2022-09-09T07:43:47;100472.25;;;23.64;51.55
28289;BME280;15558;50.874;6.964;2022-09-09T07:46:15;100481.63;;;23.61;51.39
28289;BME280;15558;50.874;6.964;2022-09-09T07:48:46;100484.47;;;23.58;51.61
28289;BME280;15558;50.874;6.964;2022-09-09T07:51:15;100484.88;;;23.60;52.15
28289;BME280;15558;50.874;6.964;2022-09-09T07:53:46;100480.56;;;23.44;51.97
28289;BME280;15558;50.874;6.964;2022-09-09T07:56:14;100490.34;;;23.39;52.12
28289;BME280;15558;50.874;6.964;2022-09-09T07:58:44;100483.34;;;23.37;51.66
28289;BME280;15558;50.874;6.964;2022-09-09T08:01:17;100490.63;;;23.31;52.03
28289;BME280;15558;50.874;6.964;2022-09-09T08:03:45;100476.09;;;23.14;51.32
28289;BME280;15558;50.874;6.964;2022-09-09T08:06:12;100490.00;;;23.15;52.42
28289;BME280;15558;50.874;6.964;2022-09-09T08:08:40;100485.06;;;23.12;52.02
28289;BME280;15558;50.874;6.964;2022-09-09T08:11:13;100491.16;;;23.07;51.83
28289;BME280;15558;50.874;6.964;2022-09-09T08:13:41;100493.22;;;23.10;51.50
28289;BME280;15558;50.874;6.964;2022-09-09T08:16:15;100491.03;;;23.00;51.17
28289;BME280;15558;50.874;6.964;2022-09-09T08:18:41;100496.44;;;23.05;51.36
28289;BME280;15558;50.874;6.964;2022-09-09T08:21:11;100488.81;;;22.87;51.26
28289;BME280;15558;50.874;6.964;2022-09-09T08:23:41;100494.44;;;22.84;51.21
28289;BME280;15558;50.874;6.964;2022-09-09T08:26:12;100490.56;;;22.95;51.30
28289;BME280;15558;50.874;6.964;2022-09-09T08:28:40;100487.97;;;22.87;51.39
28289;BME280;15558;50.874;6.964;2022-09-09T08:31:14;100486.66;;;22.84;51.43
28289;BME280;15558;50.874;6.964;2022-09-09T08:33:41;100486.75;;;22.88;50.81
28289;BME280;15558;50.874;6.964;2022-09-09T08:36:10;100490.59;;;22.98;49.26
28289;BME280;15558;50.874;6.964;2022-09-09T08:38:37;100487.63;;;23.21;49.44
28289;BME280;15558;50.874;6.964;2022-09-09T08:43:51;100477.75;;;23.47;47.20
28289;BME280;15558;50.874;6.964;2022-09-09T08:46:37;100478.19;;;23.49;47.97
28289;BME280;15558;50.874;6.964;2022-09-09T08:49:21;100490.75;;;23.70;48.39
28289;BME280;15558;50.874;6.964;2022-09-09T08:51:53;100495.28;;;23.71;47.25
28289;BME280;15558;50.874;6.964;2022-09-09T08:54:21;100505.81;;;23.64;47.45
28289;BME280;15558;50.874;6.964;2022-09-09T08:56:48;100498.16;;;23.75;46.80
28289;BME280;15558;50.874;6.964;2022-09-09T08:59:17;100503.50;;;23.76;46.20
28289;BME280;15558;50.874;6.964;2022-09-09T09:01:54;100498.72;;;23.87;47.86
28289;BME280;15558;50.874;6.964;2022-09-09T09:07:19;100491.94;;;24.05;46.98
28289;BME280;15558;50.874;6.964;2022-09-09T09:09:57;100497.91;;;23.87;46.92
28289;BME280;15558;50.874;6.964;2022-09-09T09:12:40;100496.22;;;23.82;46.55
28289;BME280;15558;50.874;6.964;2022-09-09T09:15:27;100490.22;;;23.97;47.53
28289;BME280;15558;50.874;6.964;2022-09-09T09:17:56;100501.06;;;23.78;47.33
28289;BME280;15558;50.874;6.964;2022-09-09T09:20:33;100504.16;;;23.99;47.32
28289;BME280;15558;50.874;6.964;2022-09-09T09:23:05;100503.75;;;23.97;46.77
28289;BME280;15558;50.874;6.964;2022-09-09T09:25:34;100495.94;;;23.94;47.29
28289;BME280;15558;50.874;6.964;2022-09-09T09:28:12;100500.75;;;23.87;46.92
28289;BME280;15558;50.874;6.964;2022-09-09T09:30:50;100508.44;;;23.76;47.28
28289;BME280;15558;50.874;6.964;2022-09-09T09:33:33;100509.94;;;23.66;47.82
28289;BME280;15558;50.874;6.964;2022-09-09T09:36:01;100514.59;;;23.78;48.41
28289;BME280;15558;50.874;6.964;2022-09-09T09:38:29;100510.31;;;23.61;48.19
28289;BME280;15558;50.874;6.964;2022-09-09T09:40:57;100512.72;;;23.60;48.22
28289;BME280;15558;50.874;6.964;2022-09-09T09:43:28;100505.31;;;23.55;48.56
28289;BME280;15558;50.874;6.964;2022-09-09T09:45:55;100517.00;;;23.43;48.25
28289;BME280;15558;50.874;6.964;2022-09-09T09:48:23;100507.59;;;23.43;48.25
28289;BME280;15558;50.874;6.964;2022-09-09T09:51:01;100504.41;;;23.51;48.30
28289;BME280;15558;50.874;6.964;2022-09-09T09:53:33;100513.38;;;23.50;47.79
28289;BME280;15558;50.874;6.964;2022-09-09T09:56:01;100505.03;;;23.67;47.45
28289;BME280;15558;50.874;6.964;2022-09-09T09:58:30;100497.47;;;23.85;47.26
28289;BME280;15558;50.874;6.964;2022-09-09T10:00:57;100494.13;;;23.79;47.59
28289;BME280;15558;50.874;6.964;2022-09-09T10:03:27;100497.91;;;23.87;47.57
28289;BME280;15558;50.874;6.964;2022-09-09T10:05:54;100499.97;;;23.90;47.06
28289;BME280;15558;50.874;6.964;2022-09-09T10:08:23;100490.22;;;23.97;47.21
28289;BME280;15558;50.874;6.964;2022-09-09T10:13:59;100492.38;;;24.07;46.95
28289;BME280;15558;50.874;6.964;2022-09-09T10:19:04;100493.59;;;24.06;46.86
28289;BME280;15558;50.874;6.964;2022-09-09T10:27:05;100497.78;;;24.16;46.38
28289;BME280;15558;50.874;6.964;2022-09-09T10:35:33;100484.63;;;24.11;46.07
28289;BME280;15558;50.874;6.964;2022-09-09T10:38:40;100490.63;;;24.35;45.73
28289;BME280;15558;50.874;6.964;2022-09-09T10:41:34;100484.72;;;24.65;45.21
28289;BME280;15558;50.874;6.964;2022-09-09T10:47:04;100475.09;;;24.97;45.27
28289;BME280;15558;50.874;6.964;2022-09-09T10:49:52;100480.09;;;25.06;44.98
28289;BME280;15558;50.874;6.964;2022-09-09T10:52:32;100470.84;;;25.51;44.24
28289;BME280;15558;50.874;6.964;2022-09-09T10:55:16;100474.97;;;25.50;43.59
28289;BME280;15558;50.874;6.964;2022-09-09T10:57:48;100474.06;;;25.32;42.91
28289;BME280;15558;50.874;6.964;2022-09-09T11:00:19;100483.94;;;25.31;43.75
28289;BME280;15558;50.874;6.964;2022-09-09T11:02:49;100481.38;;;25.16;44.03
28289;BME280;15558;50.874;6.964;2022-09-09T11:05:36;100483.91;;;25.28;44.91
28289;BME280;15558;50.874;6.964;2022-09-09T11:08:19;100476.09;;;25.28;43.99
28289;BME280;15558;50.874;6.964;2022-09-09T11:10:53;100472.38;;;25.21;43.62
28289;BME280;15558;50.874;6.964;2022-09-09T11:19:42;100469.88;;;25.12;44.08
28289;BME280;15558;50.874;6.964;2022-09-09T11:22:24;100471.47;;;25.06;44.30
28289;BME280;15558;50.874;6.964;2022-09-09T11:25:13;100481.19;;;24.88;43.83
28289;BME280;15558;50.874;6.964;2022-09-09T11:30:22;100467.06;;;24.66;43.60
28289;BME280;15558;50.874;6.964;2022-09-09T11:38:33;100465.47;;;24.68;44.36
28289;BME280;15558;50.874;6.964;2022-09-09T11:41:07;100460.59;;;24.76;44.50
28289;BME280;15558;50.874;6.964;2022-09-09T11:43:41;100461.13;;;24.92;43.63
28289;BME280;15558;50.874;6.964;2022-09-09T11:46:09;100446.44;;;25.07;43.79
28289;BME280;15558;50.874;6.964;2022-09-09T11:48:40;100457.63;;;25.29;43.37
28289;BME280;15558;50.874;6.964;2022-09-09T11:51:32;100450.59;;;25.20;44.28
28289;BME280;15558;50.874;6.964;2022-09-09T11:54:33;100453.53;;;25.30;43.14
28289;BME280;15558;50.874;6.964;2022-09-09T11:57:25;100445.28;;;25.18;42.95
28289;BME280;15558;50.874;6.964;2022-09-09T11:59:52;100446.03;;;25.08;43.03
28289;BME280;15558;50.874;6.964;2022-09-09T12:02:23;100455.44;;;25.05;42.66
28289;BME280;15558;50.874;6.964;2022-09-09T12:05:09;100455.88;;;25.07;42.31
28289;BME280;15558;50.874;6.964;2022-09-09T12:07:55;100463.22;;;24.98;42.38
28289;BME280;15558;50.874;6.964;2022-09-09T12:10:26;100451.63;;;24.81;42.21
28289;BME280;15558;50.874;6.964;2022-09-09T12:12:53;100460.19;;;24.77;42.52
28289;BME280;15558;50.874;6.964;2022-09-09T12:15:26;100454.03;;;24.75;43.08
28289;BME280;15558;50.874;6.964;2022-09-09T12:17:57;100459.38;;;24.80;43.83
28289;BME280;15558;50.874;6.964;2022-09-09T12:28:08;100453.16;;;24.65;42.91
28289;BME280;15558;50.874;6.964;2022-09-09T12:30:44;100452.78;;;24.73;43.38
28289;BME280;15558;50.874;6.964;2022-09-09T12:33:16;100444.22;;;24.80;43.00
28289;BME280;15558;50.874;6.964;2022-09-09T12:35:43;100454.06;;;24.82;43.41
28289;BME280;15558;50.874;6.964;2022-09-09T12:38:15;100455.56;;;24.59;42.56
28289;BME280;15558;50.874;6.964;2022-09-09T12:40:53;100459.66;;;24.62;43.41
28289;BME280;15558;50.874;6.964;2022-09-09T12:43:21;100448.59;;;24.60;43.07
28289;BME280;15558;50.874;6.964;2022-09-09T12:45:49;100446.09;;;24.55;43.25
28289;BME280;15558;50.874;6.964;2022-09-09T12:48:18;100433.47;;;24.70;43.54
28289;BME280;15558;50.874;6.964;2022-09-09T12:50:48;100442.56;;;24.79;44.37
28289;BME280;15558;50.874;6.964;2022-09-09T12:53:34;100431.88;;;24.76;43.18
28289;BME280;15558;50.874;6.964;2022-09-09T12:56:05;100436.41;;;24.80;43.21
28289;BME280;15558;50.874;6.964;2022-09-09T12:58:33;100432.75;;;24.87;43.02
28289;BME280;15558;50.874;6.964;2022-09-09T13:01:02;100434.13;;;25.00;43.98
28289;BME280;15558;50.874;6.964;2022-09-09T13:03:31;100425.13;;;25.08;43.87
28289;BME280;15558;50.874;6.964;2022-09-09T13:06:09;100422.63;;;25.03;44.03
28289;BME280;15558;50.874;6.964;2022-09-09T13:08:37;100423.88;;;25.09;43.61
28289;BME280;15558;50.874;6.964;2022-09-09T13:11:09;100428.84;;;25.12;43.65
28289;BME280;15558;50.874;6.964;2022-09-09T13:13:39;100430.53;;;25.27;43.12
28289;BME280;15558;50.874;6.964;2022-09-09T13:16:15;100428.13;;;25.39;43.26
28289;BME280;15558;50.874;6.964;2022-09-09T13:18:43;100432.66;;;25.47;42.79
28289;BME280;15558;50.874;6.964;2022-09-09T13:21:09;100427.31;;;25.49;42.99
28289;BME280;15558;50.874;6.964;2022-09-09T13:23:37;100424.50;;;25.59;43.33
28289;BME280;15558;50.874;6.964;2022-09-09T13:28:47;100425.78;;;25.79;43.21
28289;BME280;15558;50.874;6.964;2022-09-09T13:31:22;100423.72;;;25.69;43.18
28289;BME280;15558;50.874;6.964;2022-09-09T13:33:48;100425.31;;;25.56;42.30
28289;BME280;15558;50.874;6.964;2022-09-09T13:36:14;100428.50;;;25.34;42.79
28289;BME280;15558;50.874;6.964;2022-09-09T13:41:19;100403.47;;;25.35;43.85
28289;BME280;15558;50.874;6.964;2022-09-09T13:43:47;100413.75;;;25.46;43.52
28289;BME280;15558;50.874;6.964;2022-09-09T13:49:01;100406.72;;;25.26;43.70
28289;BME280;15558;50.874;6.964;2022-09-09T13:51:34;100416.59;;;25.32;44.42
28289;BME280;15558;50.874;6.964;2022-09-09T13:54:06;100412.53;;;25.47;44.08
28289;BME280;15558;50.874;6.964;2022-09-09T13:56:35;100414.53;;;25.36;43.86
28289;BME280;15558;50.874;6.964;2022-09-09T13:59:04;100409.66;;;25.47;44.16
28289;BME280;15558;50.874;6.964;2022-09-09T14:01:30;100409.25;;;25.45;44.15
28289;BME280;15558;50.874;6.964;2022-09-09T14:03:57;100408.78;;;25.22;44.51
28289;BME280;15558;50.874;6.964;2022-09-09T14:06:23;100409.19;;;25.28;44.66
28289;BME280;15558;50.874;6.964;2022-09-09T14:08:50;100415.75;;;25.25;44.46
28289;BME280;15558;50.874;6.964;2022-09-09T14:11:17;100413.28;;;25.23;44.65
28289;BME280;15558;50.874;6.964;2022-09-09T14:13:43;100410.03;;;25.32;45.01
28289;BME280;15558;50.874;6.964;2022-09-09T14:16:09;100410.03;;;25.35;45.06
28289;BME280;15558;50.874;6.964;2022-09-09T14:18:35;100409.25;;;25.41;46.12
28289;BME280;15558;50.874;6.964;2022-09-09T14:21:03;100407.63;;;25.47;45.56
28289;BME280;15558;50.874;6.964;2022-09-09T14:23:29;100402.69;;;25.48;45.81
28289;BME280;15558;50.874;6.964;2022-09-09T14:25:55;100399.38;;;25.39;45.16
28289;BME280;15558;50.874;6.964;2022-09-09T14:28:21;100406.75;;;25.40;44.82
28289;BME280;15558;50.874;6.964;2022-09-09T14:30:47;100414.97;;;25.35;45.05
28289;BME280;15558;50.874;6.964;2022-09-09T14:33:15;100403.81;;;25.19;45.20
28289;BME280;15558;50.874;6.964;2022-09-09T14:35:42;100409.13;;;25.14;45.36
28289;BME280;15558;50.874;6.964;2022-09-09T14:38:08;100405.44;;;25.13;45.89
28289;BME280;15558;50.874;6.964;2022-09-09T14:40:36;100402.91;;;24.98;45.84
28289;BME280;15558;50.874;6.964;2022-09-09T14:43:03;100409.91;;;25.07;45.87
28289;BME280;15558;50.874;6.964;2022-09-09T14:45:29;100420.16;;;25.02;46.17
28289;BME280;15558;50.874;6.964;2022-09-09T14:47:55;100427.09;;;24.97;46.85
28289;BME280;15558;50.874;6.964;2022-09-09T14:50:22;100432.00;;;24.90;50.52